Terminal Aerodrome Forecast
Issued by NWS

Home | Current Version | Previous Version | Text Only | Print | Product List | Glossary On
Versions: 1 2 3 4 5 6 7 8 9 10 11 12 13 14 15 16 17 18 19 20 21 22 23 24 25 26 27 28
000
FTUS42 KMFL 281419 AAB
TAFOPF
TAF AMD
KOPF 281419Z 2814/2912 VRB06KT 3SM TSRA BKN025CB
     FM281600 10008KT P6SM SHRA VCTS SCT025CB BKN035
     FM282000 11008KT P6SM VCSH SCT035
     FM290000 VRB03KT P6SM FEW025=

USA.gov is the U.S. government's official web portal to all federal, state and local government web resources and services.